Oxford, Michigan
Current Conditions -  °F | °C
As of 8:53 AM on Monday 26 Jan 2015 (Local Time) from KPTK Reporting Station
Few Clouds Few Clouds  
Wind Chill:   Ceiling: Unl
Heat Index: 10°   Visibility: 10mi
Dew Point:   Wind: 6mph
Humidity: 80%   Direction: 10°N
Pressure: 29.93"   Gusts: NA
Location:  42.82°N, 83.25°W
Report Text: KPTK 261353Z 01005KT 10SM FEW250 M12/M15 A2993 RMK AO2 SLP152 T11221150
Loading
Personal Weather Stations






























Interactive Weather Map New forecast layout! Learn more

10-Day Weather Forecast

Advertisements
Track Severe Weather on mobile